Time;durP1;ratioP1;P1;durP2;ratioP2;P2;SDS_P1;SDS_P2;PMS_P1;PMS_P2;Temp;Humidity;BMP_temperature;BMP_pressure;BME280_temperature;BME280_humidity;BME280_pressure;Samples;Min_cycle;Max_cycle;Signal;HPM_P1;HPM_P2
2022/06/19 19:59:20;;;;;;;5.95;3.22;;;;;;;24.76;41.05;98461.34;5144846;27;20126;-68
2022/06/19 20:01:47;;;;;;;6.15;3.35;;;;;;;25.07;42.11;98518.75;5143407;27;20047;-69
2022/06/19 20:04:15;;;;;;;4.05;3.25;;;;;;;24.44;41.57;98398.56;5143595;27;20323;-69
2022/06/19 20:12:16;;;;;;;4.80;3.30;;;;;;;25.13;41.97;98504.41;5143730;28;20040;-69
2022/06/19 20:14:46;;;;;;;4.10;2.83;;;;;;;25.19;42.16;98511.75;5143635;27;20047;-69
2022/06/19 20:17:13;;;;;;;6.93;2.88;;;;;;;24.51;41.96;98388.63;5143838;27;20188;-69
2022/06/19 20:19:41;;;;;;;4.90;3.22;;;;;;;25.13;41.53;98504.41;5142636;28;20054;-69
2022/06/19 20:22:13;;;;;;;4.97;3.55;;;;;;;25.19;41.49;98500.91;5143096;27;20058;-69
2022/06/19 20:24:46;;;;;;;6.68;3.42;;;;;;;25.23;41.45;98507.59;5143331;27;20218;-70
2022/06/19 20:27:18;;;;;;;8.07;3.15;;;;;;;25.12;41.18;98499.19;5143252;27;20051;-69
2022/06/19 20:29:50;;;;;;;4.18;3.55;;;;;;;25.13;41.52;98500.84;5143346;27;20062;-70
2022/06/19 20:32:25;;;;;;;3.95;2.95;;;;;;;25.13;41.54;98507.13;5143346;27;20055;-70
2022/06/19 20:34:52;;;;;;;4.97;3.00;;;;;;;25.10;41.58;98501.25;5143424;27;20059;-70
2022/06/19 20:37:21;;;;;;;8.07;3.35;;;;;;;25.13;41.81;98501.69;5143220;27;20055;-69
2022/06/19 20:39:50;;;;;;;4.07;3.20;;;;;;;25.13;41.61;98504.41;5142956;27;20063;-70
2022/06/19 20:42:22;;;;;;;4.20;3.63;;;;;;;25.10;41.57;98496.66;5143367;27;20051;-69
2022/06/19 20:44:51;;;;;;;5.28;3.58;;;;;;;25.15;41.57;98496.06;5142876;27;20142;-70
2022/06/19 20:47:22;;;;;;;7.15;3.42;;;;;;;25.11;41.55;98503.75;5142969;27;20047;-69
2022/06/19 20:49:52;;;;;;;5.38;3.45;;;;;;;25.16;41.79;98503.16;5142704;27;20342;-69
2022/06/19 20:52:21;;;;;;;6.68;4.10;;;;;;;25.09;41.43;98505.84;5142909;27;20048;-69
2022/06/19 20:54:52;;;;;;;7.38;3.53;;;;;;;25.07;41.49;98502.47;5142447;27;20051;-69
2022/06/19 20:57:20;;;;;;;6.28;3.20;;;;;;;25.05;41.83;98504.56;5142630;27;20051;-69
2022/06/19 20:59:48;;;;;;;5.45;3.38;;;;;;;24.99;41.61;98508.03;5142872;27;20047;-68
2022/06/19 21:02:17;;;;;;;8.07;3.15;;;;;;;25.01;41.92;98502.44;5142560;27;20215;-69
2022/06/19 21:04:45;;;;;;;5.53;3.22;;;;;;;24.99;41.89;98505.31;5142612;27;20058;-69
2022/06/19 21:07:18;;;;;;;3.72;3.20;;;;;;;25.03;41.54;98501.19;5142733;27;20334;-69
2022/06/19 21:09:46;;;;;;;3.33;2.80;;;;;;;24.99;41.71;98496.34;5134123;27;20062;-69
2022/06/19 21:12:13;;;;;;;4.40;3.03;;;;;;;24.92;41.78;98499.84;5129052;28;20056;-69
2022/06/19 21:14:41;;;;;;;6.07;3.20;;;;;;;24.93;42.15;98489.84;5128967;28;20055;-69
2022/06/19 21:17:14;;;;;;;3.72;3.10;;;;;;;24.87;41.64;98487.91;5128588;28;20192;-69
2022/06/19 21:19:43;;;;;;;5.28;3.38;;;;;;;24.85;41.89;98482.69;5128502;28;20047;-68
2022/06/19 21:22:15;;;;;;;4.38;3.45;;;;;;;24.82;41.83;98488.50;5128400;27;20326;-68
2022/06/19 21:24:43;;;;;;;5.20;3.55;;;;;;;24.53;42.31;98451.56;5128487;28;20055;-68
2022/06/19 21:27:13;;;;;;;4.03;3.10;;;;;;;24.87;41.98;98493.34;5128424;28;20056;-68
2022/06/19 21:29:41;;;;;;;4.20;3.50;;;;;;;24.82;42.01;98484.97;5128824;27;20043;-68
2022/06/19 21:32:14;;;;;;;3.75;3.20;;;;;;;24.70;42.25;98486.53;5128521;28;20043;-69
2022/06/19 21:34:43;;;;;;;3.92;3.05;;;;;;;24.74;41.86;98485.94;5128431;28;20048;-69
2022/06/19 21:37:12;;;;;;;5.00;3.15;;;;;;;24.71;42.18;98488.19;5128191;28;20067;-70
2022/06/19 21:39:39;;;;;;;4.65;3.10;;;;;;;24.65;42.40;98487.09;5128101;28;20051;-69
2022/06/19 21:42:07;;;;;;;4.28;3.38;;;;;;;24.72;42.08;98479.03;5128150;28;20292;-70
2022/06/19 21:44:34;;;;;;;4.40;3.40;;;;;;;24.65;42.23;98470.84;5127864;28;20058;-68
2022/06/19 21:47:01;;;;;;;4.07;2.88;;;;;;;24.58;42.43;98468.06;5128266;28;20047;-69
2022/06/19 21:49:29;;;;;;;4.32;3.50;;;;;;;24.54;42.35;98476.78;5128190;28;20051;-69
2022/06/19 21:51:59;;;;;;;4.82;2.88;;;;;;;24.57;42.25;98477.22;5128257;28;20052;-70
2022/06/19 21:54:27;;;;;;;3.55;2.85;;;;;;;24.44;42.48;98484.38;5128214;27;20070;-71
2022/06/19 21:56:54;;;;;;;4.35;3.00;;;;;;;24.47;42.53;98484.00;5127745;28;20056;-70
2022/06/19 21:59:22;;;;;;;4.10;3.15;;;;;;;24.45;42.62;98481.47;5127948;28;20044;-71
2022/06/19 22:01:55;;;;;;;4.35;3.05;;;;;;;24.48;42.70;98480.25;5128033;28;20063;-71
2022/06/19 22:04:22;;;;;;;5.05;3.40;;;;;;;24.45;42.67;98475.22;5127908;27;20051;-70
2022/06/19 22:06:54;;;;;;;4.90;3.17;;;;;;;24.49;42.44;98474.66;5127699;28;20338;-69
2022/06/19 22:09:25;;;;;;;3.80;2.88;;;;;;;24.22;42.79;98426.69;5127908;28;20055;-69
2022/06/19 22:14:42;;;;;;;4.13;3.17;;;;;;;24.43;42.58;98464.59;5127759;28;20198;-70
2022/06/19 22:17:10;;;;;;;5.55;3.97;;;;;;;24.40;42.72;98470.41;5127789;28;20055;-69
2022/06/19 22:19:37;;;;;;;6.95;4.18;;;;;;;24.43;42.67;98470.00;5127624;28;20058;-69
2022/06/19 22:22:13;;;;;;;6.80;5.10;;;;;;;24.48;42.76;98472.97;5126634;28;20055;-69
2022/06/19 22:24:46;;;;;;;5.82;4.72;;;;;;;24.44;42.69;98474.38;5127671;28;20055;-69
2022/06/19 22:27:17;;;;;;;4.03;3.20;;;;;;;24.37;42.74;98475.38;5127311;28;20055;-69
2022/06/19 22:29:46;;;;;;;4.25;3.10;;;;;;;24.38;42.78;98474.31;5127246;28;20051;-69
2022/06/19 22:32:17;;;;;;;3.85;2.90;;;;;;;24.42;42.86;98476.44;5127773;27;20062;-69
2022/06/19 22:34:44;;;;;;;5.60;3.20;;;;;;;24.39;42.76;98479.56;5127435;28;20054;-68
2022/06/19 22:37:15;;;;;;;4.03;3.15;;;;;;;24.36;42.77;98477.22;5127406;28;20059;-69
2022/06/19 22:39:47;;;;;;;4.55;2.80;;;;;;;24.31;42.70;98474.25;5127248;28;20215;-68
2022/06/19 22:42:18;;;;;;;5.75;3.72;;;;;;;24.32;42.80;98478.66;5127039;28;20231;-68
2022/06/19 22:44:47;;;;;;;4.70;2.92;;;;;;;24.32;42.62;98473.22;5126895;28;20047;-69
2022/06/19 22:47:17;;;;;;;6.38;3.17;;;;;;;24.34;42.66;98473.88;5127227;28;20051;-69
2022/06/19 22:49:45;;;;;;;3.55;2.63;;;;;;;24.28;42.78;98477.34;5127199;27;20062;-70
2022/06/19 22:52:12;;;;;;;4.72;3.25;;;;;;;24.29;42.78;98477.16;5127133;28;20074;-70
2022/06/19 22:54:41;;;;;;;5.03;3.35;;;;;;;24.31;42.60;98477.81;5126633;28;20296;-70
2022/06/19 22:57:17;;;;;;;4.85;2.55;;;;;;;24.31;42.70;98472.41;5126797;28;20063;-70
2022/06/19 23:02:29;;;;;;;12.60;11.27;;;;;;;24.26;42.82;98468.59;5127088;28;20341;-68
2022/06/19 23:05:04;;;;;;;12.75;8.35;;;;;;;24.26;42.92;98461.31;5126833;28;20318;-67
2022/06/19 23:07:31;;;;;;;6.63;5.00;;;;;;;24.24;42.88;98465.25;5126908;28;20299;-67
2022/06/19 23:09:58;;;;;;;6.18;3.95;;;;;;;24.22;42.99;98467.31;5126504;28;20074;-68
2022/06/19 23:12:27;;;;;;;7.45;5.72;;;;;;;24.26;42.76;98464.00;5126791;28;20055;-68
2022/06/19 23:14:54;;;;;;;8.43;6.57;;;;;;;24.19;42.93;98460.41;5126701;28;20063;-68
2022/06/19 23:17:25;;;;;;;5.93;4.78;;;;;;;24.23;42.82;98460.84;5126669;28;20056;-68
2022/06/19 23:19:54;;;;;;;5.25;3.33;;;;;;;24.19;42.96;98456.84;5126457;28;20219;-68
2022/06/19 23:22:22;;;;;;;4.07;3.25;;;;;;;24.16;43.00;98462.66;5126424;28;20203;-68
2022/06/19 23:24:52;;;;;;;6.32;3.35;;;;;;;24.19;42.88;98455.00;5126433;28;20055;-68
2022/06/19 23:27:24;;;;;;;4.35;3.17;;;;;;;24.21;42.89;98449.38;5126109;27;20055;-68
2022/06/19 23:29:52;;;;;;;3.50;2.80;;;;;;;24.13;42.84;98447.63;5126305;28;20054;-68
2022/06/19 23:32:20;;;;;;;5.43;3.05;;;;;;;24.14;42.78;98443.91;5126103;28;20055;-68
2022/06/19 23:34:47;;;;;;;4.25;2.90;;;;;;;24.12;42.88;98443.25;5126247;28;20311;-68
2022/06/19 23:37:19;;;;;;;5.95;2.63;;;;;;;24.08;42.74;98446.53;5126116;28;20047;-68
2022/06/19 23:39:47;;;;;;;5.35;3.65;;;;;;;23.38;42.64;98334.44;5126232;28;20055;-68
2022/06/19 23:42:16;;;;;;;4.05;2.85;;;;;;;23.90;43.17;98439.66;5126236;28;20048;-68
2022/06/19 23:44:43;;;;;;;6.20;3.22;;;;;;;23.83;43.18;98446.88;5126252;28;20056;-68
2022/06/19 23:47:15;;;;;;;11.35;3.65;;;;;;;23.95;43.00;98445.34;5126202;28;20058;-69
2022/06/19 23:49:43;;;;;;;5.65;4.40;;;;;;;23.95;42.97;98445.34;5126247;28;20043;-69
2022/06/19 23:52:11;;;;;;;7.13;4.70;;;;;;;23.96;42.97;98451.59;5126173;28;20062;-71
2022/06/19 23:54:38;;;;;;;5.95;3.95;;;;;;;23.96;42.90;98440.75;5126083;28;20051;-68
2022/06/19 23:57:06;;;;;;;5.35;3.10;;;;;;;23.96;42.83;98438.06;5125393;28;20051;-70
2022/06/19 23:59:34;;;;;;;4.00;3.13;;;;;;;23.65;42.87;98395.91;5126095;28;20051;-68
